Oshawa Airport
CYOO : now visible

Airfield :











YOU CAN JOIN US ON...

 
LOGIN :

Register | Disclaimer

   EN    FR    IT 

 









Legend :    VFR   Marginal VFR   IFR   Intensive IFR   Very Intensive IFR
Visi :
Ceiling :
>= 8 km
>= 3000ft
5 to 8 km
1000 to 3000 ft
1500m to 5 km
500 to 1000 ft
800 to 1500m
200 to 500 ft
< 800m
< 200 ft
Symbols :   Thunderstorms  Fog  Heavy snow  Heavy precipitations  Wind > 20 kt







- Airport Elevation : 459 ft
- IATA code : YOO


CYOO - Oshawa

CURRENT METAR :
  • 181900Z AUTO VRB03KT 9SM OVC024 26/20 A2993 RMK SLP134 DENSITY ALT 1800FT

EXPIRED METARs :
  • 181815Z AUTO VRB02KT 9SM BKN022 25/20 A2993 RMK SLP136 DENSITY ALT 1700FT
  • 181801Z AUTO 19005KT 120V290 9SM SCT019 OVC025 25/20 A2994 RMK SLP138 DENSITY ALT 1600FT
  • 181737Z AUTO 13005KT 100V170 9SM BKN023 25/20 A2993 RMK SLP135 DENSITY ALT 1600FT
  • 181700Z AUTO 13005KT 090V190 9SM OVC027 24/20 A2993 RMK SLP136 DENSITY ALT 1600FT

TAF AMD TAF CYOO
Valid from the 18 at 18:00 until the 19 at 02:00 UTC


181820Z 1818/1902 VRB03KT P6SM BKN030
TEMPO 1818/1821 BKN020
FM182100 18010KT P6SM SKC RMK FCST BASED ON AUTO OBS. NXT FCST BY 182000Z
CZYZ FIR / North America



MET'MAP, your aeronautical weather chart ! - Copyright ORBIFLY December 2007 - Disclaimer

ORBIFLY MET'MAP TEAM :

Programming & Development : Alexandra Zaïnal
Concept & Development : Baudouin d'Aumeries
Co-Development & Prog : Marc-Olivier Méhu
Technical & hardware support : Manuel Goepfert

Contact : metmap@orbifly.com




SOURCES & CREDITS :

   NOAA       Earth
Advisory